createdAt,value
2023-02-17T00:01:13.601Z,0.20
2023-02-17T00:03:49.130Z,0.22
2023-02-17T00:06:19.067Z,0.22
2023-02-17T00:08:50.466Z,0.21
2023-02-17T00:11:19.002Z,0.19
2023-02-17T00:13:47.059Z,0.17
2023-02-17T00:16:18.835Z,0.18
2023-02-17T00:18:47.271Z,0.19
2023-02-17T00:21:20.310Z,0.22
2023-02-17T00:23:48.844Z,0.28
2023-02-17T00:26:19.319Z,0.35
2023-02-17T00:28:48.210Z,0.42
2023-02-17T00:31:19.652Z,0.48
2023-02-17T00:33:48.269Z,0.52
2023-02-17T00:36:18.076Z,0.56
2023-02-17T00:38:48.097Z,0.58
2023-02-17T00:41:19.534Z,0.60
2023-02-17T00:43:48.060Z,0.61
2023-02-17T00:46:17.509Z,0.62
2023-02-17T00:48:49.087Z,0.63
2023-02-17T00:51:18.494Z,0.64
2023-02-17T00:53:47.081Z,0.65
2023-02-17T00:56:15.974Z,0.65
2023-02-17T00:58:46.521Z,0.64
2023-02-17T01:01:15.471Z,0.61
2023-02-17T01:03:44.511Z,0.57
2023-02-17T01:06:22.076Z,0.55
2023-02-17T01:08:50.371Z,0.54
2023-02-17T01:11:19.742Z,0.52
2023-02-17T01:13:48.148Z,0.53
2023-02-17T01:16:20.681Z,0.54
2023-02-17T01:18:49.393Z,0.55
2023-02-17T01:21:21.274Z,0.56
2023-02-17T01:23:51.198Z,0.57
2023-02-17T01:26:21.284Z,0.57
2023-02-17T01:28:49.591Z,0.56
2023-02-17T01:31:17.990Z,0.54
2023-02-17T01:33:48.608Z,0.49
2023-02-17T01:36:17.957Z,0.46
2023-02-17T01:38:48.845Z,0.45
2023-02-17T01:41:21.116Z,0.45
2023-02-17T01:44:10.915Z,0.46
2023-02-17T01:46:46.318Z,0.46
2023-02-17T01:49:17.292Z,0.46
2023-02-17T01:51:51.499Z,0.45
2023-02-17T01:54:41.478Z,0.44
2023-02-17T01:57:11.170Z,0.41
2023-02-17T01:59:39.583Z,0.41
2023-02-17T02:02:08.158Z,0.40
2023-02-17T02:04:37.990Z,0.39
2023-02-17T02:07:06.820Z,0.39
2023-02-17T02:09:43.380Z,0.38
2023-02-17T02:12:31.006Z,0.38
2023-02-17T02:15:12.797Z,0.37
2023-02-17T02:18:08.040Z,0.38
2023-02-17T02:20:52.746Z,0.37
2023-02-17T02:23:47.761Z,0.36
2023-02-17T02:26:40.812Z,0.34
2023-02-17T02:29:14.934Z,0.34
2023-02-17T02:31:51.809Z,0.33
2023-02-17T02:34:22.236Z,0.33
2023-02-17T02:37:01.072Z,0.33
2023-02-17T02:39:35.700Z,0.32
2023-02-17T02:42:06.663Z,0.33
2023-02-17T02:44:34.812Z,0.33
2023-02-17T02:47:05.542Z,0.35
2023-02-17T02:49:35.789Z,0.35
2023-02-17T02:52:27.395Z,0.38
2023-02-17T02:55:04.068Z,0.40
2023-02-17T02:57:54.081Z,0.39
2023-02-17T03:00:46.468Z,0.39
2023-02-17T03:03:20.100Z,0.38
2023-02-17T03:06:19.720Z,0.38
2023-02-17T03:09:09.700Z,0.38
2023-02-17T03:11:38.182Z,0.38
2023-02-17T03:14:14.857Z,0.36
2023-02-17T03:16:43.005Z,0.36
2023-02-17T03:19:11.720Z,0.34
2023-02-17T03:22:12.665Z,0.32
2023-02-17T03:24:40.807Z,0.31
2023-02-17T03:27:10.451Z,0.29
2023-02-17T03:29:39.548Z,0.25
2023-02-17T03:32:07.753Z,0.22
2023-02-17T03:34:36.004Z,0.19
2023-02-17T03:37:04.289Z,0.19
2023-02-17T03:39:32.557Z,0.18
2023-02-17T03:42:01.045Z,0.18
2023-02-17T03:44:29.317Z,0.18
2023-02-17T03:46:57.495Z,0.17
2023-02-17T03:49:25.670Z,0.17
2023-02-17T03:51:53.846Z,0.17
2023-02-17T03:54:22.841Z,0.17
2023-02-17T03:56:51.545Z,0.17
2023-02-17T03:59:23.286Z,0.16
2023-02-17T04:01:52.390Z,0.15
2023-02-17T04:04:20.654Z,0.14
2023-02-17T04:06:49.001Z,0.13
2023-02-17T04:09:18.965Z,0.13
2023-02-17T04:11:47.439Z,0.14
2023-02-17T04:14:15.615Z,0.15
2023-02-17T04:16:45.326Z,0.17
2023-02-17T04:19:13.504Z,0.18
2023-02-17T04:21:43.733Z,0.19
2023-02-17T04:24:12.636Z,0.21
2023-02-17T04:26:40.708Z,0.23
2023-02-17T04:29:08.766Z,0.26
2023-02-17T04:31:36.971Z,0.28
2023-02-17T04:34:05.321Z,0.28
2023-02-17T04:36:33.790Z,0.31
2023-02-17T04:39:02.495Z,0.33
2023-02-17T04:41:30.972Z,0.34
2023-02-17T04:43:59.256Z,0.36
2023-02-17T04:46:27.581Z,0.37
2023-02-17T04:48:56.623Z,0.39
2023-02-17T04:51:24.911Z,0.41
2023-02-17T04:53:53.697Z,0.43
2023-02-17T04:56:21.870Z,0.45
2023-02-17T04:58:54.622Z,0.45
2023-02-17T05:01:22.864Z,0.46
2023-02-17T05:03:51.107Z,0.48
2023-02-17T05:06:19.487Z,0.47
2023-02-17T05:08:48.401Z,0.49
2023-02-17T05:11:17.580Z,0.50
2023-02-17T05:13:45.833Z,0.51
2023-02-17T05:16:17.967Z,0.52
2023-02-17T05:18:47.196Z,0.54
2023-02-17T05:21:15.301Z,0.55
2023-02-17T05:23:43.803Z,0.58
2023-02-17T05:26:11.823Z,0.60
2023-02-17T05:28:39.930Z,0.62
2023-02-17T05:31:08.271Z,0.62
2023-02-17T05:33:37.200Z,0.63
2023-02-17T05:36:07.662Z,0.65
2023-02-17T05:38:37.447Z,0.65
2023-02-17T05:41:05.849Z,0.65
2023-02-17T05:43:34.006Z,0.65
2023-02-17T05:46:03.672Z,0.65
2023-02-17T05:48:32.341Z,0.67
2023-02-17T05:51:01.008Z,0.69
2023-02-17T05:53:31.211Z,0.70
2023-02-17T05:55:59.491Z,0.72
2023-02-17T05:58:27.781Z,0.75
2023-02-17T06:00:56.252Z,0.79
2023-02-17T06:03:24.532Z,0.83
2023-02-17T06:05:52.911Z,0.84
2023-02-17T06:08:21.088Z,0.87
2023-02-17T06:10:54.594Z,0.89
2023-02-17T06:13:23.488Z,0.90
2023-02-17T06:15:52.098Z,0.94
2023-02-17T06:18:20.452Z,1.02
2023-02-17T06:20:48.833Z,1.08
2023-02-17T06:23:20.191Z,1.13
2023-02-17T06:25:48.559Z,1.15
2023-02-17T06:28:16.741Z,1.17
2023-02-17T06:30:45.365Z,1.16
2023-02-17T06:33:14.216Z,1.16
2023-02-17T06:35:44.643Z,1.14
2023-02-17T06:38:12.826Z,1.12
2023-02-17T06:40:40.843Z,1.11
2023-02-17T06:43:08.927Z,1.12
2023-02-17T06:45:37.819Z,1.14
2023-02-17T06:48:06.565Z,1.15
2023-02-17T06:50:35.335Z,1.15
2023-02-17T06:53:03.623Z,1.16
2023-02-17T06:55:38.339Z,1.16
2023-02-17T06:58:08.497Z,1.17
2023-02-17T07:00:36.631Z,1.21
2023-02-17T07:03:04.914Z,1.25
2023-02-17T07:05:37.029Z,1.30
2023-02-17T07:08:05.260Z,1.34
2023-02-17T07:10:33.950Z,1.35
2023-02-17T07:13:02.184Z,1.36
2023-02-17T07:15:30.915Z,1.38
2023-02-17T07:17:59.370Z,1.40
2023-02-17T07:20:27.476Z,1.41
2023-02-17T07:22:56.571Z,1.41
2023-02-17T07:25:24.949Z,1.42
2023-02-17T07:27:53.241Z,1.40
2023-02-17T07:30:21.645Z,1.36
2023-02-17T07:32:49.884Z,1.31
2023-02-17T07:35:18.063Z,1.27
2023-02-17T07:37:46.343Z,1.27
2023-02-17T07:40:14.613Z,1.28
2023-02-17T07:42:42.795Z,1.28
2023-02-17T07:45:11.271Z,1.27
2023-02-17T07:47:41.501Z,1.26
2023-02-17T07:50:09.839Z,1.24
2023-02-17T07:52:38.151Z,1.24
2023-02-17T07:55:06.951Z,1.27
2023-02-17T07:57:35.132Z,1.29
2023-02-17T08:00:04.987Z,1.31
2023-02-17T08:02:41.503Z,1.31
2023-02-17T08:05:10.191Z,1.33
2023-02-17T08:07:39.704Z,1.34
2023-02-17T08:10:27.335Z,1.32
2023-02-17T08:13:14.626Z,1.30
2023-02-17T08:15:42.749Z,1.25
2023-02-17T08:18:11.732Z,1.21
2023-02-17T08:20:40.030Z,1.21
2023-02-17T08:23:10.647Z,1.23
2023-02-17T08:25:38.731Z,1.26
2023-02-17T08:28:12.414Z,1.28
2023-02-17T08:30:41.603Z,1.27
2023-02-17T08:33:10.035Z,1.26
2023-02-17T08:35:39.929Z,1.25
2023-02-17T08:38:08.503Z,1.28
2023-02-17T08:40:37.187Z,1.30
2023-02-17T08:43:08.535Z,1.33
2023-02-17T08:45:37.548Z,1.34
2023-02-17T08:48:05.814Z,1.35
2023-02-17T08:50:34.191Z,1.35
2023-02-17T08:53:02.485Z,1.35
2023-02-17T08:55:43.959Z,1.35
2023-02-17T08:58:16.768Z,1.33
2023-02-17T09:00:47.211Z,1.32
2023-02-17T09:03:16.501Z,1.32
2023-02-17T09:05:44.877Z,1.32
2023-02-17T09:08:13.159Z,1.35
2023-02-17T09:10:41.313Z,1.36
2023-02-17T09:13:15.031Z,1.36
2023-02-17T09:15:43.724Z,1.34
2023-02-17T09:18:13.719Z,1.35
2023-02-17T09:20:42.770Z,1.35
2023-02-17T09:23:10.890Z,1.31
2023-02-17T09:25:39.497Z,1.30
2023-02-17T09:28:07.576Z,1.31
2023-02-17T09:30:36.835Z,1.33
2023-02-17T09:33:05.640Z,1.35
2023-02-17T09:35:40.491Z,1.35
2023-02-17T09:38:10.496Z,1.38
2023-02-17T09:40:41.967Z,1.44
2023-02-17T09:43:18.833Z,1.48
2023-02-17T09:45:51.510Z,1.47
2023-02-17T09:48:21.756Z,1.43
2023-02-17T09:50:57.380Z,1.46
2023-02-17T09:53:38.489Z,1.49
2023-02-17T09:56:10.092Z,1.52
2023-02-17T09:58:49.759Z,1.53
2023-02-17T10:01:20.025Z,1.57
2023-02-17T10:03:52.216Z,1.62
2023-02-17T10:06:24.733Z,1.68
2023-02-17T10:09:03.587Z,1.73
2023-02-17T10:11:40.946Z,1.78
2023-02-17T10:14:29.228Z,1.80
2023-02-17T10:17:03.368Z,1.79
2023-02-17T10:19:45.140Z,1.74
2023-02-17T10:22:18.434Z,1.70
2023-02-17T10:24:46.647Z,1.68
2023-02-17T10:27:28.733Z,1.65
2023-02-17T10:30:07.588Z,1.64
2023-02-17T10:33:12.869Z,1.69
2023-02-17T10:35:59.065Z,1.73
2023-02-17T10:38:37.908Z,1.75
2023-02-17T10:41:06.260Z,1.78
2023-02-17T10:43:34.871Z,1.82
2023-02-17T10:46:05.691Z,1.87
2023-02-17T10:48:46.248Z,1.92
2023-02-17T10:51:15.149Z,1.95
2023-02-17T10:53:45.976Z,1.96
2023-02-17T10:56:26.642Z,1.97
2023-02-17T10:58:59.836Z,1.95
2023-02-17T11:01:28.503Z,1.97
2023-02-17T11:04:15.077Z,2.00
2023-02-17T11:06:52.017Z,2.05
2023-02-17T11:09:32.981Z,2.11
2023-02-17T11:12:11.713Z,2.14
2023-02-17T11:14:45.627Z,2.14
2023-02-17T11:17:18.923Z,2.13
2023-02-17T11:20:04.299Z,2.12
2023-02-17T11:22:46.608Z,2.08
2023-02-17T11:25:24.114Z,2.05
2023-02-17T11:28:00.277Z,2.06
2023-02-17T11:30:30.663Z,2.06
2023-02-17T11:32:59.173Z,2.03
2023-02-17T11:35:29.913Z,1.99
2023-02-17T11:38:02.940Z,1.99
2023-02-17T11:40:32.535Z,2.04
2023-02-17T11:43:02.130Z,2.05
2023-02-17T11:45:49.977Z,2.02
2023-02-17T11:48:38.208Z,2.02
2023-02-17T11:51:30.555Z,2.00
2023-02-17T11:54:29.750Z,2.03
2023-02-17T11:57:23.938Z,2.09
2023-02-17T12:00:13.306Z,2.16
2023-02-17T12:02:57.565Z,2.22
2023-02-17T12:05:31.876Z,2.25
2023-02-17T12:08:10.065Z,2.22
2023-02-17T12:10:46.057Z,2.19
2023-02-17T12:13:45.559Z,2.21
2023-02-17T12:16:20.970Z,2.20
2023-02-17T12:19:04.365Z,2.18
2023-02-17T12:21:35.788Z,2.21
2023-02-17T12:24:10.210Z,2.24
2023-02-17T12:26:50.475Z,2.26
2023-02-17T12:29:57.315Z,2.30
2023-02-17T12:32:34.846Z,2.36
2023-02-17T12:35:16.234Z,2.42
2023-02-17T12:38:15.967Z,2.43
2023-02-17T12:40:50.899Z,2.38
2023-02-17T12:43:36.270Z,2.36
2023-02-17T12:46:08.079Z,2.33
2023-02-17T12:48:41.085Z,2.31
2023-02-17T12:51:16.570Z,2.32
2023-02-17T12:53:49.155Z,2.33
2023-02-17T12:56:28.423Z,2.32
2023-02-17T12:59:10.677Z,2.31
2023-02-17T13:01:39.173Z,2.29
2023-02-17T13:04:07.541Z,2.25
2023-02-17T13:06:42.785Z,2.15
2023-02-17T13:09:40.313Z,2.06
2023-02-17T13:12:23.901Z,1.95
2023-02-17T13:14:57.926Z,1.86
2023-02-17T13:17:39.812Z,1.80
2023-02-17T13:20:11.146Z,1.74
2023-02-17T13:22:41.272Z,1.73
2023-02-17T13:25:34.998Z,1.72
2023-02-17T13:28:32.645Z,1.69
2023-02-17T13:31:16.153Z,1.67
2023-02-17T13:33:50.036Z,1.63
2023-02-17T13:36:22.666Z,1.58
2023-02-17T13:39:00.594Z,1.54
2023-02-17T13:41:30.366Z,1.49
2023-02-17T13:43:59.245Z,1.44
2023-02-17T13:46:28.017Z,1.40
2023-02-17T13:49:21.005Z,1.36
2023-02-17T13:51:49.277Z,1.33
2023-02-17T13:54:21.179Z,1.32
2023-02-17T13:56:53.064Z,1.32
2023-02-17T13:59:25.523Z,1.30
2023-02-17T14:01:56.715Z,1.28
2023-02-17T14:04:30.738Z,1.26
2023-02-17T14:06:59.591Z,1.24
2023-02-17T14:09:30.733Z,1.23
2023-02-17T14:12:03.267Z,1.20
2023-02-17T14:14:33.367Z,1.16
2023-02-17T14:17:05.639Z,1.13
2023-02-17T14:19:43.800Z,1.13
2023-02-17T14:22:28.919Z,1.12
2023-02-17T14:25:14.363Z,1.11
2023-02-17T14:27:44.067Z,1.11
2023-02-17T14:30:29.558Z,1.09
2023-02-17T14:33:16.528Z,1.07
2023-02-17T14:35:53.701Z,1.07
2023-02-17T14:38:32.414Z,1.05
2023-02-17T14:41:01.338Z,1.00
2023-02-17T14:43:29.794Z,0.92
2023-02-17T14:45:57.969Z,0.86
2023-02-17T14:48:27.904Z,0.78
2023-02-17T14:50:57.220Z,0.67
2023-02-17T14:53:29.980Z,0.62
2023-02-17T14:56:15.844Z,0.58
2023-02-17T14:58:44.043Z,0.59
2023-02-17T15:01:13.933Z,0.59
2023-02-17T15:03:42.686Z,0.59
2023-02-17T15:06:15.635Z,0.59
2023-02-17T15:08:45.556Z,0.59
2023-02-17T15:11:34.439Z,0.57
2023-02-17T15:14:03.843Z,0.53
2023-02-17T15:16:33.364Z,0.50
2023-02-17T15:19:01.827Z,0.46
2023-02-17T15:21:31.766Z,0.44
2023-02-17T15:24:26.468Z,0.41
2023-02-17T15:26:57.256Z,0.41
2023-02-17T15:29:25.536Z,0.42
2023-02-17T15:31:56.066Z,0.42
2023-02-17T15:34:26.908Z,0.40
2023-02-17T15:36:55.184Z,0.38
2023-02-17T15:39:23.261Z,0.38
2023-02-17T15:41:52.401Z,0.37
2023-02-17T15:44:24.931Z,0.36
2023-02-17T15:46:55.378Z,0.32
2023-02-17T15:49:23.533Z,0.31
2023-02-17T15:51:51.812Z,0.29
2023-02-17T15:54:20.407Z,0.26
2023-02-17T15:56:49.971Z,0.21
2023-02-17T15:59:19.123Z,0.16
2023-02-17T16:01:47.605Z,0.12
2023-02-17T16:04:15.679Z,0.09
2023-02-17T16:06:44.145Z,0.05
2023-02-17T16:09:12.321Z,-0.00
2023-02-17T16:11:49.106Z,-0.06
2023-02-17T16:14:34.392Z,-0.11
2023-02-17T16:17:04.296Z,-0.17
2023-02-17T16:19:33.593Z,-0.21
2023-02-17T16:22:01.677Z,-0.27
2023-02-17T16:24:30.772Z,-0.33
2023-02-17T16:26:58.944Z,-0.37
2023-02-17T16:29:27.425Z,-0.43
2023-02-17T16:31:56.214Z,-0.45
2023-02-17T16:34:26.262Z,-0.46
2023-02-17T16:36:55.138Z,-0.46
2023-02-17T16:39:27.707Z,-0.48
2023-02-17T16:41:55.987Z,-0.51
2023-02-17T16:44:24.188Z,-0.53
2023-02-17T16:46:53.978Z,-0.56
2023-02-17T16:49:36.344Z,-0.56
2023-02-17T16:52:22.191Z,-0.56
2023-02-17T16:54:50.459Z,-0.56
2023-02-17T16:57:19.144Z,-0.55
2023-02-17T16:59:47.304Z,-0.56
2023-02-17T17:02:15.723Z,-0.58
2023-02-17T17:04:43.867Z,-0.61
2023-02-17T17:07:13.683Z,-0.63
2023-02-17T17:09:43.108Z,-0.65
2023-02-17T17:12:16.868Z,-0.66
2023-02-17T17:14:45.374Z,-0.68
2023-02-17T17:17:15.599Z,-0.69
2023-02-17T17:19:43.776Z,-0.68
2023-02-17T17:22:12.159Z,-0.69
2023-02-17T17:24:40.703Z,-0.72
2023-02-17T17:27:10.775Z,-0.72
2023-02-17T17:29:39.244Z,-0.74
2023-02-17T17:32:07.597Z,-0.78
2023-02-17T17:34:35.904Z,-0.81
2023-02-17T17:37:04.179Z,-0.83
2023-02-17T17:39:32.350Z,-0.84
2023-02-17T17:42:00.534Z,-0.86
2023-02-17T17:44:33.620Z,-0.87
2023-02-17T17:47:01.933Z,-0.87
2023-02-17T17:49:30.181Z,-0.89
2023-02-17T17:51:58.352Z,-0.90
2023-02-17T17:54:26.434Z,-0.90
2023-02-17T17:56:54.499Z,-0.93
2023-02-17T17:59:22.784Z,-0.95
2023-02-17T18:01:53.463Z,-0.96
2023-02-17T18:04:22.064Z,-0.96
2023-02-17T18:06:56.251Z,-0.97
2023-02-17T18:09:32.310Z,-0.98
2023-02-17T18:12:03.368Z,-0.99
2023-02-17T18:14:32.222Z,-1.00
2023-02-17T18:17:00.687Z,-0.99
2023-02-17T18:19:29.906Z,-0.98
2023-02-17T18:21:58.906Z,-0.97
2023-02-17T18:24:27.067Z,-0.97
2023-02-17T18:26:55.967Z,-0.98
2023-02-17T18:29:24.136Z,-0.99
2023-02-17T18:31:52.747Z,-0.98
2023-02-17T18:34:21.711Z,-0.97
2023-02-17T18:36:50.092Z,-0.98
2023-02-17T18:39:18.678Z,-0.98
2023-02-17T18:41:51.185Z,-0.98
2023-02-17T18:44:19.536Z,-0.98
2023-02-17T18:46:47.912Z,-0.98
2023-02-17T18:49:16.188Z,-0.98
2023-02-17T18:51:44.576Z,-0.95
2023-02-17T18:54:13.061Z,-0.92
2023-02-17T18:56:41.747Z,-0.90
2023-02-17T18:59:10.329Z,-0.89
2023-02-17T19:01:41.047Z,-0.87
2023-02-17T19:04:09.954Z,-0.86
2023-02-17T19:06:38.472Z,-0.84
2023-02-17T19:09:07.735Z,-0.84
2023-02-17T19:11:36.339Z,-0.84
2023-02-17T19:14:08.288Z,-0.85
2023-02-17T19:16:38.043Z,-0.87
2023-02-17T19:19:06.378Z,-0.89
2023-02-17T19:21:36.445Z,-0.89
2023-02-17T19:24:05.017Z,-0.88
2023-02-17T19:26:34.492Z,-0.89
2023-02-17T19:29:03.072Z,-0.90
2023-02-17T19:31:31.511Z,-0.90
2023-02-17T19:33:59.758Z,-0.91
2023-02-17T19:36:28.625Z,-0.89
2023-02-17T19:38:57.524Z,-0.88
2023-02-17T19:41:26.301Z,-0.88
2023-02-17T19:43:54.598Z,-0.88
2023-02-17T19:46:24.566Z,-0.88
2023-02-17T19:48:52.575Z,-0.87
2023-02-17T19:51:21.071Z,-0.86
2023-02-17T19:53:49.354Z,-0.85
2023-02-17T19:56:26.135Z,-0.85
2023-02-17T19:58:55.736Z,-0.84
2023-02-17T20:01:25.379Z,-0.84
2023-02-17T20:03:54.793Z,-0.82
2023-02-17T20:06:31.120Z,-0.81
2023-02-17T20:09:01.688Z,-0.82
2023-02-17T20:11:30.458Z,-0.84
2023-02-17T20:13:59.163Z,-0.84
2023-02-17T20:16:31.934Z,-0.86
2023-02-17T20:19:01.201Z,-0.88
2023-02-17T20:21:30.629Z,-0.88
2023-02-17T20:24:01.772Z,-0.87
2023-02-17T20:26:31.890Z,-0.87
2023-02-17T20:29:03.053Z,-0.86
2023-02-17T20:31:31.797Z,-0.84
2023-02-17T20:34:02.980Z,-0.82
2023-02-17T20:36:31.232Z,-0.81
2023-02-17T20:38:59.632Z,-0.81
2023-02-17T20:41:27.815Z,-0.78
2023-02-17T20:43:55.966Z,-0.77
2023-02-17T20:46:26.130Z,-0.75
2023-02-17T20:48:54.988Z,-0.75
2023-02-17T20:51:23.263Z,-0.74
2023-02-17T20:53:52.227Z,-0.73
2023-02-17T20:56:22.514Z,-0.73
2023-02-17T20:58:51.442Z,-0.73
2023-02-17T21:01:20.158Z,-0.71
2023-02-17T21:03:48.338Z,-0.70
2023-02-17T21:06:21.039Z,-0.68
2023-02-17T21:08:56.683Z,-0.69
2023-02-17T21:11:25.669Z,-0.69
2023-02-17T21:13:54.262Z,-0.70
2023-02-17T21:16:25.025Z,-0.70
2023-02-17T21:18:54.090Z,-0.70
2023-02-17T21:21:22.158Z,-0.70
2023-02-17T21:23:50.541Z,-0.71
2023-02-17T21:26:18.726Z,-0.70
2023-02-17T21:28:47.249Z,-0.69
2023-02-17T21:31:16.501Z,-0.68
2023-02-17T21:33:44.990Z,-0.69
2023-02-17T21:36:17.870Z,-0.69
2023-02-17T21:38:48.793Z,-0.71
2023-02-17T21:41:19.949Z,-0.71
2023-02-17T21:44:07.384Z,-0.70
2023-02-17T21:46:37.715Z,-0.68
2023-02-17T21:49:09.984Z,-0.68
2023-02-17T21:51:39.308Z,-0.66
2023-02-17T21:54:09.472Z,-0.64
2023-02-17T21:56:38.094Z,-0.65
2023-02-17T21:59:06.501Z,-0.64
2023-02-17T22:01:35.258Z,-0.63
2023-02-17T22:04:03.845Z,-0.62
2023-02-17T22:06:37.620Z,-0.61
2023-02-17T22:09:07.065Z,-0.58
2023-02-17T22:11:43.345Z,-0.58
2023-02-17T22:14:15.793Z,-0.58
2023-02-17T22:16:46.318Z,-0.56
2023-02-17T22:19:19.421Z,-0.54
2023-02-17T22:21:48.102Z,-0.51
2023-02-17T22:24:20.813Z,-0.51
2023-02-17T22:26:49.328Z,-0.49
2023-02-17T22:29:17.750Z,-0.49
2023-02-17T22:31:46.953Z,-0.48
2023-02-17T22:34:15.158Z,-0.45
2023-02-17T22:36:43.508Z,-0.44
2023-02-17T22:39:11.683Z,-0.42
2023-02-17T22:41:41.199Z,-0.41
2023-02-17T22:44:09.376Z,-0.40
2023-02-17T22:46:40.818Z,-0.38
2023-02-17T22:49:08.994Z,-0.38
2023-02-17T22:51:39.298Z,-0.37
2023-02-17T22:54:07.905Z,-0.36
2023-02-17T22:56:36.108Z,-0.35
2023-02-17T22:59:05.847Z,-0.36
2023-02-17T23:01:35.477Z,-0.34
2023-02-17T23:04:04.874Z,-0.34
2023-02-17T23:06:34.706Z,-0.33
2023-02-17T23:09:03.105Z,-0.33
2023-02-17T23:11:51.356Z,-0.32
2023-02-17T23:14:40.168Z,-0.32
2023-02-17T23:17:10.539Z,-0.31
2023-02-17T23:19:42.532Z,-0.29
2023-02-17T23:22:14.785Z,-0.28
2023-02-17T23:24:44.391Z,-0.27
2023-02-17T23:27:12.792Z,-0.25
2023-02-17T23:29:41.072Z,-0.23
2023-02-17T23:32:09.426Z,-0.22
2023-02-17T23:34:38.419Z,-0.21
2023-02-17T23:37:06.597Z,-0.19
2023-02-17T23:39:37.973Z,-0.17
2023-02-17T23:42:08.796Z,-0.16
2023-02-17T23:44:38.503Z,-0.15
2023-02-17T23:47:06.984Z,-0.13
2023-02-17T23:49:35.278Z,-0.11
2023-02-17T23:52:03.629Z,-0.09
2023-02-17T23:54:33.969Z,-0.07
2023-02-17T23:57:02.255Z,-0.05
2023-02-17T23:59:30.523Z,-0.02
